createdAt,value
2023-03-12T00:01:24.019Z,-0.90
2023-03-12T00:03:51.460Z,-0.90
2023-03-12T00:06:20.076Z,-1.00
2023-03-12T00:08:48.022Z,-0.90
2023-03-12T00:11:17.422Z,-0.90
2023-03-12T00:13:44.261Z,-0.90
2023-03-12T00:16:15.818Z,-1.00
2023-03-12T00:18:43.567Z,-0.90
2023-03-12T00:21:10.768Z,-0.90
2023-03-12T00:23:37.735Z,-0.90
2023-03-12T00:26:07.804Z,-0.90
2023-03-12T00:28:35.363Z,-0.90
2023-03-12T00:31:22.617Z,-0.90
2023-03-12T00:33:50.152Z,-0.90
2023-03-12T00:36:24.235Z,-0.90
2023-03-12T00:38:54.718Z,-0.80
2023-03-12T00:41:22.926Z,-0.90
2023-03-12T00:43:50.876Z,-0.80
2023-03-12T00:46:18.338Z,-0.80
2023-03-12T00:48:45.426Z,-0.80
2023-03-12T00:51:12.439Z,-0.70
2023-03-12T00:53:39.321Z,-0.60
2023-03-12T00:56:06.685Z,-0.50
2023-03-12T00:58:33.475Z,-0.50
2023-03-12T01:01:00.352Z,-0.50
2023-03-12T01:03:27.218Z,-0.40
2023-03-12T01:05:56.590Z,-0.30
2023-03-12T01:08:24.448Z,-0.30
2023-03-12T01:10:51.706Z,-0.20
2023-03-12T01:13:18.482Z,-0.10
2023-03-12T01:15:45.235Z,-0.10
2023-03-12T01:18:11.949Z,0.10
2023-03-12T01:20:40.314Z,0.20
2023-03-12T01:23:07.127Z,0.20
2023-03-12T01:25:34.780Z,0.30
2023-03-12T01:28:02.125Z,0.40
2023-03-12T01:30:30.020Z,0.50
2023-03-12T01:32:56.717Z,0.50
2023-03-12T01:35:23.922Z,0.60
2023-03-12T01:37:50.952Z,0.60
2023-03-12T01:40:20.434Z,0.60
2023-03-12T01:42:54.951Z,0.50
2023-03-12T01:46:18.633Z,0.50
2023-03-12T01:48:50.036Z,0.50
2023-03-12T01:51:18.824Z,0.40
2023-03-12T01:53:50.654Z,0.40
2023-03-12T01:56:19.060Z,0.40
2023-03-12T01:58:50.503Z,0.30
2023-03-12T02:01:18.868Z,0.30
2023-03-12T02:03:48.013Z,0.30
2023-03-12T02:06:15.634Z,0.30
2023-03-12T02:08:45.438Z,0.30
2023-03-12T02:11:12.280Z,0.30
2023-03-12T02:13:39.455Z,0.30
2023-03-12T02:16:07.075Z,0.30
2023-03-12T02:18:35.505Z,0.30
2023-03-12T02:21:13.921Z,0.30
2023-03-12T02:24:02.569Z,0.40
2023-03-12T02:26:30.821Z,0.40
2023-03-12T02:29:00.524Z,0.40
2023-03-12T02:31:32.939Z,0.50
2023-03-12T02:34:00.625Z,0.50
2023-03-12T02:36:27.952Z,0.40
2023-03-12T02:38:55.104Z,0.30
2023-03-12T02:41:24.006Z,0.30
2023-03-12T02:44:22.156Z,0.40
2023-03-12T02:46:51.599Z,0.40
2023-03-12T02:49:19.882Z,0.50
2023-03-12T02:51:48.325Z,0.50
2023-03-12T02:54:17.378Z,0.60
2023-03-12T02:56:44.777Z,0.60
2023-03-12T02:59:13.287Z,0.70
2023-03-12T03:01:40.985Z,0.80
2023-03-12T03:04:09.176Z,0.90
2023-03-12T03:06:39.196Z,0.90
2023-03-12T03:09:06.170Z,0.90
2023-03-12T03:11:32.996Z,0.80
2023-03-12T03:13:59.750Z,0.80
2023-03-12T03:16:26.580Z,0.80
2023-03-12T03:18:53.301Z,0.80
2023-03-12T03:21:20.333Z,0.90
2023-03-12T03:23:48.846Z,1.00
2023-03-12T03:26:17.854Z,1.10
2023-03-12T03:31:10.425Z,1.30
2023-03-12T03:33:39.175Z,1.30
2023-03-12T03:36:07.220Z,1.40
2023-03-12T03:38:34.817Z,1.50
2023-03-12T03:41:02.483Z,1.50
2023-03-12T03:43:29.300Z,1.50
2023-03-12T03:46:00.778Z,1.60
2023-03-12T03:48:27.825Z,1.60
2023-03-12T03:50:54.496Z,1.60
2023-03-12T03:53:21.313Z,1.60
2023-03-12T03:55:48.046Z,1.70
2023-03-12T03:58:15.043Z,1.70
2023-03-12T04:00:44.779Z,1.80
2023-03-12T04:03:11.496Z,1.80
2023-03-12T04:05:38.211Z,1.80
2023-03-12T04:08:05.379Z,1.80
2023-03-12T04:10:32.187Z,1.90
2023-03-12T04:12:59.014Z,1.90
2023-03-12T04:15:25.668Z,1.90
2023-03-12T04:17:52.398Z,2.00
2023-03-12T04:20:19.250Z,2.00
2023-03-12T04:22:45.881Z,2.10
2023-03-12T04:25:12.650Z,2.10
2023-03-12T04:27:39.362Z,2.10
2023-03-12T04:30:06.513Z,2.10
2023-03-12T04:32:33.318Z,2.10
2023-03-12T04:34:59.993Z,2.20
2023-03-12T04:37:27.597Z,2.20
2023-03-12T04:39:54.304Z,2.20
2023-03-12T04:42:20.964Z,2.30
2023-03-12T04:44:47.645Z,2.30
2023-03-12T04:47:14.354Z,2.30
2023-03-12T04:49:41.009Z,2.30
2023-03-12T04:52:07.798Z,2.40
2023-03-12T04:54:35.065Z,2.40
2023-03-12T04:57:01.801Z,2.40
2023-03-12T04:59:28.501Z,2.40
2023-03-12T05:01:55.344Z,2.40
2023-03-12T05:04:22.048Z,2.40
2023-03-12T05:06:48.727Z,2.40
2023-03-12T05:09:15.431Z,2.40
2023-03-12T05:11:42.102Z,2.40
2023-03-12T05:14:11.392Z,2.40
2023-03-12T05:16:38.314Z,2.40
2023-03-12T05:19:05.423Z,2.40
2023-03-12T05:21:32.098Z,2.40
2023-03-12T05:23:59.514Z,2.40
2023-03-12T05:26:32.212Z,2.40
2023-03-12T05:29:02.712Z,2.50
2023-03-12T05:31:33.167Z,2.50
2023-03-12T05:34:00.048Z,2.40
2023-03-12T05:36:26.828Z,2.40
2023-03-12T05:38:53.703Z,2.40
2023-03-12T05:41:29.908Z,2.40
2023-03-12T05:43:57.346Z,2.40
2023-03-12T05:46:26.049Z,2.40
2023-03-12T05:48:53.205Z,2.40
2023-03-12T05:51:20.908Z,2.40
2023-03-12T05:53:47.805Z,2.40
2023-03-12T05:56:16.362Z,2.50
2023-03-12T05:58:43.786Z,2.40
2023-03-12T06:01:26.708Z,2.40
2023-03-12T06:03:53.378Z,2.50
2023-03-12T06:06:20.111Z,2.50
2023-03-12T06:08:46.739Z,2.40
2023-03-12T06:11:14.225Z,2.40
2023-03-12T06:13:41.142Z,2.40
2023-03-12T06:16:16.313Z,2.50
2023-03-12T06:18:43.472Z,2.50
2023-03-12T06:21:19.263Z,2.50
2023-03-12T06:23:46.826Z,2.50
2023-03-12T06:26:13.878Z,2.40
2023-03-12T06:28:40.908Z,2.50
2023-03-12T06:31:08.981Z,2.50
2023-03-12T06:33:36.090Z,2.50
2023-03-12T06:36:05.739Z,2.60
2023-03-12T06:38:32.962Z,2.60
2023-03-12T06:41:05.185Z,2.60
2023-03-12T06:43:32.867Z,2.50
2023-03-12T06:46:00.404Z,2.60
2023-03-12T06:48:29.114Z,2.50
2023-03-12T06:50:55.789Z,2.50
2023-03-12T06:53:23.483Z,2.60
2023-03-12T06:55:51.465Z,2.60
2023-03-12T06:58:18.710Z,2.60
2023-03-12T07:00:45.621Z,2.60
2023-03-12T07:03:12.670Z,2.70
2023-03-12T07:05:39.399Z,2.80
2023-03-12T07:08:06.371Z,2.90
2023-03-12T07:10:33.155Z,3.00
2023-03-12T07:12:59.955Z,3.20
2023-03-12T07:15:26.744Z,3.30
2023-03-12T07:17:53.434Z,3.30
2023-03-12T07:20:20.223Z,3.40
2023-03-12T07:22:46.872Z,3.50
2023-03-12T07:25:13.494Z,3.80
2023-03-12T07:27:40.096Z,4.00
2023-03-12T07:30:07.485Z,4.20
2023-03-12T07:32:36.388Z,4.30
2023-03-12T07:35:04.551Z,4.40
2023-03-12T07:37:31.462Z,4.50
2023-03-12T07:39:58.241Z,4.50
2023-03-12T07:42:25.339Z,4.40
2023-03-12T07:44:52.125Z,4.60
2023-03-12T07:47:23.929Z,4.80
2023-03-12T07:49:51.332Z,4.90
2023-03-12T07:52:20.126Z,4.90
2023-03-12T07:54:47.734Z,4.90
2023-03-12T07:57:15.055Z,4.90
2023-03-12T07:59:41.974Z,4.90
2023-03-12T08:02:10.560Z,4.90
2023-03-12T08:04:37.502Z,4.80
2023-03-12T08:07:04.782Z,5.00
2023-03-12T08:09:33.275Z,5.10
2023-03-12T08:12:00.028Z,5.10
2023-03-12T08:14:31.600Z,5.10
2023-03-12T08:16:59.286Z,5.30
2023-03-12T08:19:26.769Z,5.30
2023-03-12T08:21:54.055Z,5.30
2023-03-12T08:24:21.765Z,5.50
2023-03-12T08:26:48.662Z,5.60
2023-03-12T08:29:16.536Z,5.40
2023-03-12T08:31:57.558Z,5.50
2023-03-12T08:34:30.044Z,5.50
2023-03-12T08:36:56.773Z,5.50
2023-03-12T08:39:23.597Z,5.50
2023-03-12T08:41:51.728Z,5.50
2023-03-12T08:44:18.407Z,5.50
2023-03-12T08:46:45.130Z,5.50
2023-03-12T08:49:11.832Z,5.50
2023-03-12T08:51:38.551Z,5.50
2023-03-12T08:54:05.593Z,5.60
2023-03-12T08:56:32.837Z,5.60
2023-03-12T08:58:59.652Z,5.70
2023-03-12T09:01:26.310Z,5.80
2023-03-12T09:03:55.354Z,6.00
2023-03-12T09:06:22.285Z,6.20
2023-03-12T09:08:51.550Z,6.40
2023-03-12T09:11:18.693Z,6.60
2023-03-12T09:16:32.294Z,6.90
2023-03-12T09:18:59.043Z,7.00
2023-03-12T09:21:25.866Z,7.00
2023-03-12T09:23:52.864Z,7.00
2023-03-12T09:26:19.675Z,6.90
2023-03-12T09:28:46.384Z,6.90
2023-03-12T09:31:13.364Z,7.00
2023-03-12T09:33:41.563Z,7.00
2023-03-12T09:36:08.522Z,7.10
2023-03-12T09:38:36.113Z,7.00
2023-03-12T09:41:05.290Z,7.20
2023-03-12T09:43:42.975Z,7.30
2023-03-12T09:46:15.425Z,7.20
2023-03-12T09:48:42.305Z,7.20
2023-03-12T09:51:18.575Z,7.20
2023-03-12T09:53:49.057Z,7.30
2023-03-12T09:56:19.284Z,7.50
2023-03-12T09:58:48.316Z,7.70
2023-03-12T10:01:52.476Z,7.70
2023-03-12T10:04:19.204Z,7.80
2023-03-12T10:06:52.197Z,7.90
2023-03-12T10:10:07.492Z,7.60
2023-03-12T10:13:02.291Z,7.60
2023-03-12T10:15:52.947Z,7.40
2023-03-12T10:18:48.348Z,7.40
2023-03-12T10:21:28.422Z,7.30
2023-03-12T10:24:07.093Z,7.30
2023-03-12T10:26:56.182Z,7.20
2023-03-12T10:29:28.043Z,7.20
2023-03-12T10:32:04.060Z,7.10
2023-03-12T10:34:43.073Z,7.10
2023-03-12T10:37:31.440Z,7.20
2023-03-12T10:40:00.974Z,7.10
2023-03-12T10:42:29.703Z,7.20
2023-03-12T10:45:09.632Z,7.30
2023-03-12T10:47:38.542Z,7.40
2023-03-12T10:50:19.821Z,7.60
2023-03-12T10:52:48.606Z,7.80
2023-03-12T10:55:29.638Z,7.80
2023-03-12T10:57:57.323Z,8.00
2023-03-12T11:00:29.397Z,8.00
2023-03-12T11:03:18.381Z,7.90
2023-03-12T11:05:50.748Z,7.90
2023-03-12T11:08:34.937Z,8.00
2023-03-12T11:11:04.642Z,8.10
2023-03-12T11:13:33.621Z,8.40
2023-03-12T11:16:25.088Z,8.70
2023-03-12T11:19:01.427Z,8.90
2023-03-12T11:21:29.746Z,9.00
2023-03-12T11:23:59.218Z,9.00
2023-03-12T11:26:32.051Z,8.90
2023-03-12T11:29:18.296Z,8.90
2023-03-12T11:32:04.057Z,8.70
2023-03-12T11:34:34.017Z,8.60
2023-03-12T11:37:06.894Z,8.60
2023-03-12T11:40:09.900Z,8.70
2023-03-12T11:42:42.437Z,8.60
2023-03-12T11:45:17.812Z,8.70
2023-03-12T11:48:18.926Z,8.80
2023-03-12T11:51:04.172Z,9.00
2023-03-12T11:53:57.015Z,9.50
2023-03-12T11:56:23.997Z,9.50
2023-03-12T11:59:21.889Z,9.40
2023-03-12T12:01:57.639Z,9.20
2023-03-12T12:04:48.413Z,9.30
2023-03-12T12:07:42.457Z,9.30
2023-03-12T12:10:28.025Z,9.40
2023-03-12T12:13:15.995Z,9.40
2023-03-12T12:16:08.553Z,9.60
2023-03-12T12:18:48.377Z,9.80
2023-03-12T12:21:48.309Z,9.60
2023-03-12T12:24:24.551Z,9.60
2023-03-12T12:27:16.032Z,9.40
2023-03-12T12:30:01.842Z,9.40
2023-03-12T12:32:59.710Z,9.30
2023-03-12T12:35:38.111Z,9.30
2023-03-12T12:38:11.602Z,9.10
2023-03-12T12:40:51.472Z,9.20
2023-03-12T12:43:32.264Z,9.20
2023-03-12T12:46:27.202Z,9.30
2023-03-12T12:49:18.500Z,9.50
2023-03-12T12:51:52.005Z,9.80
2023-03-12T12:54:31.093Z,9.90
2023-03-12T12:57:13.702Z,9.80
2023-03-12T13:00:00.632Z,10.00
2023-03-12T13:02:30.935Z,10.40
2023-03-12T13:04:58.971Z,10.00
2023-03-12T13:07:27.884Z,10.10
2023-03-12T13:09:58.601Z,10.20
2023-03-12T13:12:25.322Z,9.90
2023-03-12T13:14:54.965Z,9.90
2023-03-12T13:17:56.542Z,10.10
2023-03-12T13:20:31.593Z,10.10
2023-03-12T13:23:10.596Z,10.20
2023-03-12T13:25:48.327Z,10.30
2023-03-12T13:28:36.017Z,10.30
2023-03-12T13:31:15.131Z,10.20
2023-03-12T13:33:48.433Z,10.10
2023-03-12T13:36:23.167Z,9.90
2023-03-12T13:39:18.720Z,9.60
2023-03-12T13:41:45.380Z,9.60
2023-03-12T13:44:27.041Z,9.50
2023-03-12T13:47:04.830Z,9.30
2023-03-12T13:49:42.383Z,9.30
2023-03-12T13:52:29.043Z,9.20
2023-03-12T13:55:13.926Z,9.20
2023-03-12T13:58:07.197Z,9.20
2023-03-12T14:00:55.834Z,9.50
2023-03-12T14:03:31.390Z,9.80
2023-03-12T14:06:10.373Z,9.80
2023-03-12T14:09:14.768Z,9.80
2023-03-12T14:11:47.482Z,10.00
2023-03-12T14:14:44.583Z,10.00
2023-03-12T14:17:16.555Z,10.20
2023-03-12T14:19:49.216Z,10.40
2023-03-12T14:22:22.565Z,10.60
2023-03-12T14:24:56.693Z,10.90
2023-03-12T14:27:32.332Z,11.20
2023-03-12T14:30:20.526Z,11.40
2023-03-12T14:32:49.688Z,11.20
2023-03-12T14:35:37.278Z,11.00
2023-03-12T14:38:15.049Z,10.90
2023-03-12T14:40:53.822Z,10.80
2023-03-12T14:43:21.440Z,10.80
2023-03-12T14:45:51.931Z,11.00
2023-03-12T14:48:22.786Z,11.00
2023-03-12T14:50:49.430Z,10.80
2023-03-12T14:53:28.767Z,11.00
2023-03-12T14:56:36.004Z,11.20
2023-03-12T14:59:31.410Z,11.10
2023-03-12T15:02:19.380Z,11.10
2023-03-12T15:04:48.638Z,11.00
2023-03-12T15:07:21.875Z,10.90
2023-03-12T15:09:50.563Z,11.10
2023-03-12T15:12:21.847Z,10.90
2023-03-12T15:14:51.536Z,10.90
2023-03-12T15:17:20.439Z,10.80
2023-03-12T15:19:48.675Z,10.80
2023-03-12T15:22:20.743Z,10.60
2023-03-12T15:24:47.839Z,10.50
2023-03-12T15:27:28.694Z,10.60
2023-03-12T15:29:56.903Z,10.70
2023-03-12T15:32:25.220Z,10.60
2023-03-12T15:34:53.756Z,10.70
2023-03-12T15:37:34.940Z,10.70
2023-03-12T15:40:06.809Z,10.50
2023-03-12T15:42:40.015Z,10.40
2023-03-12T15:45:23.116Z,10.40
2023-03-12T15:47:53.218Z,10.30
2023-03-12T15:50:34.784Z,10.40
2023-03-12T15:53:28.796Z,10.40
2023-03-12T15:56:07.527Z,10.40
2023-03-12T15:58:40.493Z,10.40
2023-03-12T16:01:10.166Z,10.30
2023-03-12T16:03:37.689Z,10.40
2023-03-12T16:06:04.933Z,10.40
2023-03-12T16:08:44.564Z,10.40
2023-03-12T16:11:25.738Z,10.30
2023-03-12T16:14:18.069Z,10.30
2023-03-12T16:16:45.883Z,10.10
2023-03-12T16:19:18.461Z,10.10
2023-03-12T16:21:45.733Z,10.00
2023-03-12T16:24:12.764Z,10.00
2023-03-12T16:26:54.849Z,10.00
2023-03-12T16:29:25.662Z,9.90
2023-03-12T16:31:55.497Z,9.90
2023-03-12T16:34:22.213Z,9.90
2023-03-12T16:36:48.893Z,9.90
2023-03-12T16:39:18.407Z,9.90
2023-03-12T16:41:46.026Z,9.90
2023-03-12T16:44:21.329Z,9.80
2023-03-12T16:46:48.141Z,9.70
2023-03-12T16:49:17.138Z,9.60
2023-03-12T16:51:43.779Z,9.50
2023-03-12T16:54:12.226Z,9.40
2023-03-12T16:56:43.092Z,9.30
2023-03-12T16:59:24.352Z,9.20
2023-03-12T17:01:51.512Z,9.10
2023-03-12T17:04:18.210Z,9.00
2023-03-12T17:06:44.941Z,9.00
2023-03-12T17:09:11.576Z,8.90
2023-03-12T17:11:39.227Z,8.80
2023-03-12T17:14:17.200Z,8.80
2023-03-12T17:16:43.981Z,8.70
2023-03-12T17:19:10.724Z,8.60
2023-03-12T17:21:37.525Z,8.50
2023-03-12T17:24:04.539Z,8.40
2023-03-12T17:26:31.378Z,8.30
2023-03-12T17:28:58.057Z,8.20
2023-03-12T17:31:24.989Z,8.10
2023-03-12T17:33:51.755Z,8.10
2023-03-12T17:36:18.673Z,8.10
2023-03-12T17:38:45.600Z,8.10
2023-03-12T17:41:25.482Z,8.10
2023-03-12T17:43:53.048Z,8.20
2023-03-12T17:46:19.753Z,8.20
2023-03-12T17:48:46.415Z,8.20
2023-03-12T17:51:13.234Z,8.10
2023-03-12T17:53:41.893Z,8.10
2023-03-12T17:56:09.160Z,8.10
2023-03-12T17:58:35.859Z,8.10
2023-03-12T18:01:02.637Z,8.10
2023-03-12T18:03:29.666Z,7.90
2023-03-12T18:05:56.428Z,7.70
2023-03-12T18:08:23.088Z,7.70
2023-03-12T18:10:49.835Z,7.60
2023-03-12T18:13:16.600Z,7.60
2023-03-12T18:15:43.407Z,7.70
2023-03-12T18:18:10.159Z,7.60
2023-03-12T18:20:39.633Z,7.60
2023-03-12T18:23:06.985Z,7.60
2023-03-12T18:25:33.794Z,7.50
2023-03-12T18:28:00.584Z,7.60
2023-03-12T18:30:28.386Z,7.50
2023-03-12T18:32:55.379Z,7.50
2023-03-12T18:35:22.732Z,7.40
2023-03-12T18:37:51.919Z,7.40
2023-03-12T18:40:18.672Z,7.40
2023-03-12T18:42:45.595Z,7.40
2023-03-12T18:45:12.683Z,7.30
2023-03-12T18:47:39.794Z,7.30
2023-03-12T18:50:08.327Z,7.20
2023-03-12T18:52:35.506Z,7.20
2023-03-12T18:55:02.420Z,7.10
2023-03-12T18:57:29.159Z,7.00
2023-03-12T18:59:56.161Z,7.00
2023-03-12T19:02:23.722Z,6.90
2023-03-12T19:04:51.333Z,6.90
2023-03-12T19:07:19.632Z,6.90
2023-03-12T19:09:46.762Z,6.80
2023-03-12T19:12:13.519Z,6.80
2023-03-12T19:14:40.391Z,6.70
2023-03-12T19:17:07.095Z,6.80
2023-03-12T19:19:33.751Z,6.70
2023-03-12T19:22:00.512Z,6.70
2023-03-12T19:24:27.363Z,6.70
2023-03-12T19:26:54.225Z,6.70
2023-03-12T19:29:21.017Z,6.70
2023-03-12T19:31:47.841Z,6.70
2023-03-12T19:34:14.678Z,6.70
2023-03-12T19:36:41.411Z,6.80
2023-03-12T19:39:15.183Z,6.80
2023-03-12T19:41:47.474Z,6.90
2023-03-12T19:44:14.154Z,7.00
2023-03-12T19:46:42.944Z,7.00
2023-03-12T19:49:09.861Z,7.00
2023-03-12T19:51:36.674Z,7.00
2023-03-12T19:54:03.573Z,7.00
2023-03-12T19:56:30.237Z,7.00
2023-03-12T19:58:56.886Z,6.90
2023-03-12T20:01:24.716Z,6.90
2023-03-12T20:03:51.389Z,6.90
2023-03-12T20:06:18.060Z,6.80
2023-03-12T20:08:45.649Z,6.90
2023-03-12T20:11:12.463Z,7.00
2023-03-12T20:13:39.244Z,7.10
2023-03-12T20:16:07.549Z,7.10
2023-03-12T20:18:34.581Z,7.10
2023-03-12T20:21:01.248Z,7.10
2023-03-12T20:23:27.869Z,7.10
2023-03-12T20:25:54.547Z,7.20
2023-03-12T20:28:21.238Z,7.10
2023-03-12T20:30:48.586Z,7.10
2023-03-12T20:33:15.336Z,7.10
2023-03-12T20:35:42.146Z,7.10
2023-03-12T20:38:09.183Z,7.00
2023-03-12T20:40:36.369Z,7.00
2023-03-12T20:43:06.066Z,7.00
2023-03-12T20:45:33.788Z,6.90
2023-03-12T20:48:01.147Z,6.90
2023-03-12T20:50:28.187Z,6.90
2023-03-12T20:52:55.093Z,6.90
2023-03-12T20:55:21.905Z,6.90
2023-03-12T20:57:49.147Z,6.90
2023-03-12T21:00:16.330Z,6.90
2023-03-12T21:02:43.030Z,6.90
2023-03-12T21:05:11.310Z,6.90
2023-03-12T21:07:38.124Z,7.00
2023-03-12T21:10:05.754Z,7.00
2023-03-12T21:12:32.477Z,7.00
2023-03-12T21:15:06.033Z,7.00
2023-03-12T21:17:37.720Z,7.00
2023-03-12T21:20:09.655Z,7.10
2023-03-12T21:22:37.086Z,7.10
2023-03-12T21:25:04.230Z,7.10
2023-03-12T21:27:38.408Z,7.10
2023-03-12T21:30:11.929Z,7.00
2023-03-12T21:32:38.686Z,7.10
2023-03-12T21:35:05.927Z,7.20
2023-03-12T21:37:32.652Z,7.20
2023-03-12T21:40:01.314Z,7.10
2023-03-12T21:42:28.759Z,7.20
2023-03-12T21:44:55.499Z,7.20
2023-03-12T21:47:22.765Z,7.20
2023-03-12T21:49:49.514Z,7.30
2023-03-12T21:52:16.282Z,7.30
2023-03-12T21:54:42.966Z,7.30
2023-03-12T21:57:09.777Z,7.30
2023-03-12T21:59:36.520Z,7.30
2023-03-12T22:02:03.190Z,7.40
2023-03-12T22:04:29.969Z,7.40
2023-03-12T22:06:56.840Z,7.40
2023-03-12T22:09:23.804Z,7.40
2023-03-12T22:11:50.543Z,7.40
2023-03-12T22:14:17.218Z,7.40
2023-03-12T22:16:44.024Z,7.30
2023-03-12T22:19:10.851Z,7.30
2023-03-12T22:21:38.122Z,7.20
2023-03-12T22:24:05.148Z,7.20
2023-03-12T22:26:31.817Z,7.10
2023-03-12T22:28:59.322Z,7.00
2023-03-12T22:31:27.522Z,7.00
2023-03-12T22:33:54.535Z,7.00
2023-03-12T22:36:22.204Z,6.90
2023-03-12T22:38:49.452Z,6.90
2023-03-12T22:41:34.383Z,6.80
2023-03-12T22:44:03.780Z,6.80
2023-03-12T22:46:30.556Z,6.70
2023-03-12T22:48:59.692Z,6.70
2023-03-12T22:51:27.776Z,6.70
2023-03-12T22:53:54.705Z,6.60
2023-03-12T22:56:22.027Z,6.60
2023-03-12T22:58:48.958Z,6.60
2023-03-12T23:01:21.381Z,6.50
2023-03-12T23:03:48.726Z,6.50
2023-03-12T23:06:23.869Z,6.60
2023-03-12T23:08:51.689Z,6.50
2023-03-12T23:11:19.517Z,6.60
2023-03-12T23:13:48.033Z,6.60
2023-03-12T23:16:20.219Z,6.60
2023-03-12T23:18:47.327Z,6.60
2023-03-12T23:21:17.440Z,6.60
2023-03-12T23:23:44.814Z,6.60
2023-03-12T23:26:20.893Z,6.50
2023-03-12T23:28:47.955Z,6.60
2023-03-12T23:31:16.078Z,6.50
2023-03-12T23:33:43.745Z,6.50
2023-03-12T23:36:16.913Z,6.50
2023-03-12T23:38:44.146Z,6.60
2023-03-12T23:41:13.603Z,6.60
2023-03-12T23:43:40.684Z,6.70
2023-03-12T23:46:09.218Z,6.80
2023-03-12T23:48:38.501Z,6.80
2023-03-12T23:51:07.876Z,6.90
2023-03-12T23:53:35.942Z,6.90
2023-03-12T23:56:04.733Z,6.90
2023-03-12T23:58:31.542Z,7.00
